sensor_id;sensor_type;location;lat;lon;timestamp;P1;durP1;ratioP1;P2;durP2;ratioP2
66595;SDS011;59017;49.252;18.838;2022-07-23T00:02:25;25.08;;;8.55;;
66595;SDS011;59017;49.252;18.838;2022-07-23T00:04:50;21.67;;;8.75;;
66595;SDS011;59017;49.252;18.838;2022-07-23T00:07:16;18.88;;;8.30;;
66595;SDS011;59017;49.252;18.838;2022-07-23T00:09:42;23.70;;;9.10;;
66595;SDS011;59017;49.252;18.838;2022-07-23T00:12:07;20.92;;;8.60;;
66595;SDS011;59017;49.252;18.838;2022-07-23T00:14:33;20.98;;;8.45;;
66595;SDS011;59017;49.252;18.838;2022-07-23T00:16:58;21.70;;;9.10;;
66595;SDS011;59017;49.252;18.838;2022-07-23T00:19:24;16.70;;;8.65;;
66595;SDS011;59017;49.252;18.838;2022-07-23T00:21:49;22.98;;;8.80;;
66595;SDS011;59017;49.252;18.838;2022-07-23T00:24:15;19.10;;;9.05;;
66595;SDS011;59017;49.252;18.838;2022-07-23T00:26:40;17.88;;;8.68;;
66595;SDS011;59017;49.252;18.838;2022-07-23T00:29:05;16.70;;;9.50;;
66595;SDS011;59017;49.252;18.838;2022-07-23T00:31:31;14.02;;;9.55;;
66595;SDS011;59017;49.252;18.838;2022-07-23T00:33:57;14.38;;;8.98;;
66595;SDS011;59017;49.252;18.838;2022-07-23T00:36:23;17.67;;;8.88;;
66595;SDS011;59017;49.252;18.838;2022-07-23T00:38:49;19.65;;;8.43;;
66595;SDS011;59017;49.252;18.838;2022-07-23T00:41:14;14.10;;;8.93;;
66595;SDS011;59017;49.252;18.838;2022-07-23T00:43:41;15.52;;;8.75;;
66595;SDS011;59017;49.252;18.838;2022-07-23T00:46:07;16.38;;;8.95;;
66595;SDS011;59017;49.252;18.838;2022-07-23T00:48:32;18.70;;;8.95;;
66595;SDS011;59017;49.252;18.838;2022-07-23T00:50:58;18.42;;;8.32;;
66595;SDS011;59017;49.252;18.838;2022-07-23T00:53:24;16.40;;;8.98;;
66595;SDS011;59017;49.252;18.838;2022-07-23T00:55:49;19.95;;;9.10;;
66595;SDS011;59017;49.252;18.838;2022-07-23T00:58:15;18.65;;;8.80;;
66595;SDS011;59017;49.252;18.838;2022-07-23T01:00:41;13.43;;;8.23;;
66595;SDS011;59017;49.252;18.838;2022-07-23T01:03:07;17.63;;;8.98;;
66595;SDS011;59017;49.252;18.838;2022-07-23T01:05:33;16.90;;;9.40;;
66595;SDS011;59017;49.252;18.838;2022-07-23T01:07:59;18.15;;;8.55;;
66595;SDS011;59017;49.252;18.838;2022-07-23T01:10:25;14.02;;;8.30;;
66595;SDS011;59017;49.252;18.838;2022-07-23T01:12:57;15.63;;;8.50;;
66595;SDS011;59017;49.252;18.838;2022-07-23T01:15:24;16.25;;;8.48;;
66595;SDS011;59017;49.252;18.838;2022-07-23T01:17:49;16.60;;;8.25;;
66595;SDS011;59017;49.252;18.838;2022-07-23T01:20:15;14.10;;;8.13;;
66595;SDS011;59017;49.252;18.838;2022-07-23T01:22:41;14.15;;;8.40;;
66595;SDS011;59017;49.252;18.838;2022-07-23T01:25:07;23.17;;;8.30;;
66595;SDS011;59017;49.252;18.838;2022-07-23T01:27:33;19.92;;;8.88;;
66595;SDS011;59017;49.252;18.838;2022-07-23T01:30:00;18.10;;;8.40;;
66595;SDS011;59017;49.252;18.838;2022-07-23T01:32:26;16.83;;;8.07;;
66595;SDS011;59017;49.252;18.838;2022-07-23T01:34:51;17.48;;;9.30;;
66595;SDS011;59017;49.252;18.838;2022-07-23T01:37:16;13.43;;;7.93;;
66595;SDS011;59017;49.252;18.838;2022-07-23T01:39:42;12.45;;;8.15;;
66595;SDS011;59017;49.252;18.838;2022-07-23T01:42:08;12.88;;;8.10;;
66595;SDS011;59017;49.252;18.838;2022-07-23T01:44:33;18.00;;;8.38;;
66595;SDS011;59017;49.252;18.838;2022-07-23T01:46:58;18.80;;;7.97;;
66595;SDS011;59017;49.252;18.838;2022-07-23T01:49:24;13.73;;;8.00;;
66595;SDS011;59017;49.252;18.838;2022-07-23T01:51:49;16.65;;;8.50;;
66595;SDS011;59017;49.252;18.838;2022-07-23T01:54:31;14.70;;;8.32;;
66595;SDS011;59017;49.252;18.838;2022-07-23T01:56:58;13.52;;;8.27;;
66595;SDS011;59017;49.252;18.838;2022-07-23T01:59:24;14.57;;;8.48;;
66595;SDS011;59017;49.252;18.838;2022-07-23T02:01:50;14.25;;;8.43;;
66595;SDS011;59017;49.252;18.838;2022-07-23T02:04:16;18.85;;;8.45;;
66595;SDS011;59017;49.252;18.838;2022-07-23T02:06:42;18.75;;;8.48;;
66595;SDS011;59017;49.252;18.838;2022-07-23T02:09:08;14.90;;;8.10;;
66595;SDS011;59017;49.252;18.838;2022-07-23T02:11:33;17.63;;;8.52;;
66595;SDS011;59017;49.252;18.838;2022-07-23T02:13:59;16.15;;;8.57;;
66595;SDS011;59017;49.252;18.838;2022-07-23T02:16:24;15.40;;;8.40;;
66595;SDS011;59017;49.252;18.838;2022-07-23T02:18:50;15.23;;;8.48;;
66595;SDS011;59017;49.252;18.838;2022-07-23T02:21:15;19.55;;;8.50;;
66595;SDS011;59017;49.252;18.838;2022-07-23T02:23:41;15.27;;;9.05;;
66595;SDS011;59017;49.252;18.838;2022-07-23T02:26:06;20.80;;;9.93;;
66595;SDS011;59017;49.252;18.838;2022-07-23T02:28:32;28.95;;;9.27;;
66595;SDS011;59017;49.252;18.838;2022-07-23T02:30:57;18.77;;;9.18;;
66595;SDS011;59017;49.252;18.838;2022-07-23T02:33:23;15.88;;;9.48;;
66595;SDS011;59017;49.252;18.838;2022-07-23T02:35:48;25.98;;;10.68;;
66595;SDS011;59017;49.252;18.838;2022-07-23T02:38:14;17.17;;;10.23;;
66595;SDS011;59017;49.252;18.838;2022-07-23T02:40:39;16.48;;;9.73;;
66595;SDS011;59017;49.252;18.838;2022-07-23T02:43:05;18.63;;;9.90;;
66595;SDS011;59017;49.252;18.838;2022-07-23T02:45:30;12.68;;;9.93;;
66595;SDS011;59017;49.252;18.838;2022-07-23T02:47:55;16.67;;;10.27;;
66595;SDS011;59017;49.252;18.838;2022-07-23T02:50:21;15.98;;;9.95;;
66595;SDS011;59017;49.252;18.838;2022-07-23T02:52:46;14.32;;;9.05;;
66595;SDS011;59017;49.252;18.838;2022-07-23T02:55:12;19.20;;;10.18;;
66595;SDS011;59017;49.252;18.838;2022-07-23T02:57:38;15.55;;;9.50;;
66595;SDS011;59017;49.252;18.838;2022-07-23T03:00:04;15.00;;;9.85;;
66595;SDS011;59017;49.252;18.838;2022-07-23T03:02:31;14.98;;;10.38;;
66595;SDS011;59017;49.252;18.838;2022-07-23T03:04:56;16.58;;;10.25;;
66595;SDS011;59017;49.252;18.838;2022-07-23T03:07:22;13.82;;;10.02;;
66595;SDS011;59017;49.252;18.838;2022-07-23T03:09:47;11.68;;;9.05;;
66595;SDS011;59017;49.252;18.838;2022-07-23T03:12:13;14.73;;;9.45;;
66595;SDS011;59017;49.252;18.838;2022-07-23T03:14:38;16.70;;;9.65;;
66595;SDS011;59017;49.252;18.838;2022-07-23T03:17:04;12.75;;;10.05;;
66595;SDS011;59017;49.252;18.838;2022-07-23T03:19:30;13.10;;;9.68;;
66595;SDS011;59017;49.252;18.838;2022-07-23T03:21:55;13.90;;;10.30;;
66595;SDS011;59017;49.252;18.838;2022-07-23T03:24:21;17.95;;;10.38;;
66595;SDS011;59017;49.252;18.838;2022-07-23T03:26:48;17.88;;;10.70;;
66595;SDS011;59017;49.252;18.838;2022-07-23T03:29:14;14.98;;;10.57;;
66595;SDS011;59017;49.252;18.838;2022-07-23T03:31:39;15.07;;;10.45;;
66595;SDS011;59017;49.252;18.838;2022-07-23T03:34:05;13.95;;;10.57;;
66595;SDS011;59017;49.252;18.838;2022-07-23T03:36:30;14.07;;;10.27;;
66595;SDS011;59017;49.252;18.838;2022-07-23T03:38:56;14.43;;;10.13;;
66595;SDS011;59017;49.252;18.838;2022-07-23T03:41:21;15.95;;;10.55;;
66595;SDS011;59017;49.252;18.838;2022-07-23T03:43:47;14.43;;;10.13;;
66595;SDS011;59017;49.252;18.838;2022-07-23T03:46:14;23.92;;;10.38;;
66595;SDS011;59017;49.252;18.838;2022-07-23T03:48:39;20.13;;;10.60;;
66595;SDS011;59017;49.252;18.838;2022-07-23T03:51:05;23.42;;;9.70;;
66595;SDS011;59017;49.252;18.838;2022-07-23T03:53:30;12.90;;;10.05;;
66595;SDS011;59017;49.252;18.838;2022-07-23T03:55:57;17.27;;;10.68;;
66595;SDS011;59017;49.252;18.838;2022-07-23T03:58:22;16.55;;;11.05;;
66595;SDS011;59017;49.252;18.838;2022-07-23T04:00:49;18.42;;;10.45;;
66595;SDS011;59017;49.252;18.838;2022-07-23T04:03:15;14.32;;;10.30;;
66595;SDS011;59017;49.252;18.838;2022-07-23T04:05:40;15.30;;;10.30;;
66595;SDS011;59017;49.252;18.838;2022-07-23T04:08:06;15.82;;;10.18;;
66595;SDS011;59017;49.252;18.838;2022-07-23T04:10:31;13.05;;;9.82;;
66595;SDS011;59017;49.252;18.838;2022-07-23T04:12:57;13.48;;;10.30;;
66595;SDS011;59017;49.252;18.838;2022-07-23T04:15:22;17.45;;;10.90;;
66595;SDS011;59017;49.252;18.838;2022-07-23T04:17:47;18.85;;;9.95;;
66595;SDS011;59017;49.252;18.838;2022-07-23T04:20:14;17.98;;;9.82;;
66595;SDS011;59017;49.252;18.838;2022-07-23T04:22:43;12.48;;;10.02;;
66595;SDS011;59017;49.252;18.838;2022-07-23T04:25:08;17.77;;;10.82;;
66595;SDS011;59017;49.252;18.838;2022-07-23T04:27:34;15.07;;;10.60;;
66595;SDS011;59017;49.252;18.838;2022-07-23T04:29:59;13.93;;;10.27;;
66595;SDS011;59017;49.252;18.838;2022-07-23T04:32:25;12.73;;;10.10;;
66595;SDS011;59017;49.252;18.838;2022-07-23T04:34:50;15.77;;;10.70;;
66595;SDS011;59017;49.252;18.838;2022-07-23T04:37:16;17.80;;;10.60;;
66595;SDS011;59017;49.252;18.838;2022-07-23T04:39:41;14.02;;;10.18;;
66595;SDS011;59017;49.252;18.838;2022-07-23T04:42:07;14.90;;;10.85;;
66595;SDS011;59017;49.252;18.838;2022-07-23T04:44:32;14.65;;;10.40;;
66595;SDS011;59017;49.252;18.838;2022-07-23T04:46:57;19.90;;;11.63;;
66595;SDS011;59017;49.252;18.838;2022-07-23T04:49:23;18.88;;;10.65;;
66595;SDS011;59017;49.252;18.838;2022-07-23T04:51:48;16.55;;;9.98;;
66595;SDS011;59017;49.252;18.838;2022-07-23T04:54:14;15.23;;;10.60;;
66595;SDS011;59017;49.252;18.838;2022-07-23T04:56:39;16.58;;;10.13;;
66595;SDS011;59017;49.252;18.838;2022-07-23T04:59:05;18.00;;;10.63;;
66595;SDS011;59017;49.252;18.838;2022-07-23T05:01:30;15.27;;;9.40;;
66595;SDS011;59017;49.252;18.838;2022-07-23T05:03:56;77.30;;;18.35;;
66595;SDS011;59017;49.252;18.838;2022-07-23T05:06:21;66.07;;;17.70;;
66595;SDS011;59017;49.252;18.838;2022-07-23T05:08:47;51.63;;;16.75;;
66595;SDS011;59017;49.252;18.838;2022-07-23T05:11:12;106.53;;;24.05;;
66595;SDS011;59017;49.252;18.838;2022-07-23T05:13:38;93.43;;;23.08;;
66595;SDS011;59017;49.252;18.838;2022-07-23T05:16:03;95.93;;;24.17;;
66595;SDS011;59017;49.252;18.838;2022-07-23T05:18:32;82.40;;;19.95;;
66595;SDS011;59017;49.252;18.838;2022-07-23T05:20:58;93.32;;;22.45;;
66595;SDS011;59017;49.252;18.838;2022-07-23T05:23:23;84.20;;;22.50;;
66595;SDS011;59017;49.252;18.838;2022-07-23T05:25:49;77.18;;;21.50;;
66595;SDS011;59017;49.252;18.838;2022-07-23T05:28:15;74.18;;;21.02;;
66595;SDS011;59017;49.252;18.838;2022-07-23T05:30:40;66.50;;;19.83;;
66595;SDS011;59017;49.252;18.838;2022-07-23T05:33:06;74.75;;;19.50;;
66595;SDS011;59017;49.252;18.838;2022-07-23T05:35:32;67.57;;;18.75;;
66595;SDS011;59017;49.252;18.838;2022-07-23T05:37:58;60.17;;;18.83;;
66595;SDS011;59017;49.252;18.838;2022-07-23T05:40:26;57.35;;;18.17;;
66595;SDS011;59017;49.252;18.838;2022-07-23T05:42:52;56.10;;;17.83;;
66595;SDS011;59017;49.252;18.838;2022-07-23T05:45:17;49.35;;;17.85;;
66595;SDS011;59017;49.252;18.838;2022-07-23T05:47:46;52.95;;;17.45;;
66595;SDS011;59017;49.252;18.838;2022-07-23T05:50:13;52.88;;;17.08;;
66595;SDS011;59017;49.252;18.838;2022-07-23T05:52:39;53.25;;;17.52;;
66595;SDS011;59017;49.252;18.838;2022-07-23T05:55:07;46.30;;;17.38;;
66595;SDS011;59017;49.252;18.838;2022-07-23T05:57:34;59.92;;;17.80;;
66595;SDS011;59017;49.252;18.838;2022-07-23T06:00:00;61.67;;;18.80;;
66595;SDS011;59017;49.252;18.838;2022-07-23T06:02:26;46.97;;;16.77;;
66595;SDS011;59017;49.252;18.838;2022-07-23T06:04:52;50.22;;;17.33;;
66595;SDS011;59017;49.252;18.838;2022-07-23T06:07:17;51.50;;;16.98;;
66595;SDS011;59017;49.252;18.838;2022-07-23T06:09:43;47.72;;;16.25;;
66595;SDS011;59017;49.252;18.838;2022-07-23T06:12:09;47.65;;;16.35;;
66595;SDS011;59017;49.252;18.838;2022-07-23T06:14:34;40.97;;;15.02;;
66595;SDS011;59017;49.252;18.838;2022-07-23T06:17:02;39.63;;;14.98;;
66595;SDS011;59017;49.252;18.838;2022-07-23T06:19:30;36.72;;;16.05;;
66595;SDS011;59017;49.252;18.838;2022-07-23T06:21:56;33.83;;;15.40;;
66595;SDS011;59017;49.252;18.838;2022-07-23T06:24:21;37.83;;;15.32;;
66595;SDS011;59017;49.252;18.838;2022-07-23T06:26:47;37.90;;;14.63;;
66595;SDS011;59017;49.252;18.838;2022-07-23T06:29:12;38.95;;;15.40;;
66595;SDS011;59017;49.252;18.838;2022-07-23T06:31:38;37.95;;;14.13;;
66595;SDS011;59017;49.252;18.838;2022-07-23T06:34:03;35.35;;;14.38;;
66595;SDS011;59017;49.252;18.838;2022-07-23T06:36:29;33.25;;;14.20;;
66595;SDS011;59017;49.252;18.838;2022-07-23T06:38:54;31.83;;;13.70;;
66595;SDS011;59017;49.252;18.838;2022-07-23T06:41:20;34.88;;;13.48;;
66595;SDS011;59017;49.252;18.838;2022-07-23T06:43:47;34.17;;;13.68;;
66595;SDS011;59017;49.252;18.838;2022-07-23T06:46:13;32.20;;;13.10;;
66595;SDS011;59017;49.252;18.838;2022-07-23T06:48:38;27.63;;;12.95;;
66595;SDS011;59017;49.252;18.838;2022-07-23T06:51:04;31.35;;;13.38;;
66595;SDS011;59017;49.252;18.838;2022-07-23T06:53:29;28.70;;;13.07;;
66595;SDS011;59017;49.252;18.838;2022-07-23T06:55:55;32.30;;;13.65;;
66595;SDS011;59017;49.252;18.838;2022-07-23T06:58:20;34.08;;;13.10;;
66595;SDS011;59017;49.252;18.838;2022-07-23T07:00:46;29.38;;;12.25;;
66595;SDS011;59017;49.252;18.838;2022-07-23T07:03:11;28.95;;;12.10;;
66595;SDS011;59017;49.252;18.838;2022-07-23T07:05:37;29.88;;;13.35;;
66595;SDS011;59017;49.252;18.838;2022-07-23T07:08:04;33.53;;;13.57;;
66595;SDS011;59017;49.252;18.838;2022-07-23T07:10:30;26.88;;;12.23;;
66595;SDS011;59017;49.252;18.838;2022-07-23T07:12:56;28.77;;;12.90;;
66595;SDS011;59017;49.252;18.838;2022-07-23T07:15:21;26.73;;;12.23;;
66595;SDS011;59017;49.252;18.838;2022-07-23T07:17:47;28.02;;;12.40;;
66595;SDS011;59017;49.252;18.838;2022-07-23T07:20:12;29.98;;;12.32;;
66595;SDS011;59017;49.252;18.838;2022-07-23T07:22:38;27.27;;;12.27;;
66595;SDS011;59017;49.252;18.838;2022-07-23T07:25:04;22.45;;;12.48;;
66595;SDS011;59017;49.252;18.838;2022-07-23T07:27:31;25.50;;;11.80;;
66595;SDS011;59017;49.252;18.838;2022-07-23T07:29:56;24.45;;;12.77;;
66595;SDS011;59017;49.252;18.838;2022-07-23T07:32:22;25.05;;;11.68;;
66595;SDS011;59017;49.252;18.838;2022-07-23T07:34:47;22.95;;;12.52;;
66595;SDS011;59017;49.252;18.838;2022-07-23T07:37:13;26.95;;;10.98;;
66595;SDS011;59017;49.252;18.838;2022-07-23T07:39:38;22.23;;;11.13;;
66595;SDS011;59017;49.252;18.838;2022-07-23T07:42:04;21.95;;;11.65;;
66595;SDS011;59017;49.252;18.838;2022-07-23T07:44:29;24.50;;;11.65;;
66595;SDS011;59017;49.252;18.838;2022-07-23T07:46:55;23.33;;;11.93;;
66595;SDS011;59017;49.252;18.838;2022-07-23T07:49:20;21.80;;;11.02;;
66595;SDS011;59017;49.252;18.838;2022-07-23T07:51:46;25.58;;;10.88;;
66595;SDS011;59017;49.252;18.838;2022-07-23T07:54:12;20.40;;;10.85;;
66595;SDS011;59017;49.252;18.838;2022-07-23T07:56:37;22.77;;;11.80;;
66595;SDS011;59017;49.252;18.838;2022-07-23T07:59:03;21.30;;;11.20;;
66595;SDS011;59017;49.252;18.838;2022-07-23T08:01:29;24.20;;;11.65;;
66595;SDS011;59017;49.252;18.838;2022-07-23T08:03:54;18.55;;;11.70;;
66595;SDS011;59017;49.252;18.838;2022-07-23T08:06:20;22.52;;;11.40;;
66595;SDS011;59017;49.252;18.838;2022-07-23T08:08:46;22.75;;;11.73;;
66595;SDS011;59017;49.252;18.838;2022-07-23T08:11:12;20.55;;;11.32;;
66595;SDS011;59017;49.252;18.838;2022-07-23T08:13:37;21.42;;;10.77;;
66595;SDS011;59017;49.252;18.838;2022-07-23T08:16:03;20.67;;;11.10;;
66595;SDS011;59017;49.252;18.838;2022-07-23T08:18:29;19.23;;;10.80;;
66595;SDS011;59017;49.252;18.838;2022-07-23T08:20:54;17.77;;;10.88;;
66595;SDS011;59017;49.252;18.838;2022-07-23T08:23:20;18.58;;;10.38;;
66595;SDS011;59017;49.252;18.838;2022-07-23T08:25:46;19.75;;;10.55;;
66595;SDS011;59017;49.252;18.838;2022-07-23T08:28:12;20.80;;;11.05;;
66595;SDS011;59017;49.252;18.838;2022-07-23T08:30:40;19.27;;;10.63;;
66595;SDS011;59017;49.252;18.838;2022-07-23T08:33:07;20.95;;;10.85;;
66595;SDS011;59017;49.252;18.838;2022-07-23T08:35:44;21.25;;;10.75;;
66595;SDS011;59017;49.252;18.838;2022-07-23T08:38:12;19.17;;;10.10;;
66595;SDS011;59017;49.252;18.838;2022-07-23T08:40:40;19.65;;;10.65;;
66595;SDS011;59017;49.252;18.838;2022-07-23T08:43:11;16.38;;;10.38;;
66595;SDS011;59017;49.252;18.838;2022-07-23T08:45:41;15.88;;;9.88;;
66595;SDS011;59017;49.252;18.838;2022-07-23T08:48:11;18.88;;;10.23;;
66595;SDS011;59017;49.252;18.838;2022-07-23T08:50:43;20.25;;;10.75;;
66595;SDS011;59017;49.252;18.838;2022-07-23T08:53:12;20.02;;;10.07;;
66595;SDS011;59017;49.252;18.838;2022-07-23T08:55:39;16.20;;;9.50;;
66595;SDS011;59017;49.252;18.838;2022-07-23T08:58:08;20.33;;;10.18;;
66595;SDS011;59017;49.252;18.838;2022-07-23T09:00:33;17.42;;;10.27;;
66595;SDS011;59017;49.252;18.838;2022-07-23T09:02:59;16.10;;;10.63;;
66595;SDS011;59017;49.252;18.838;2022-07-23T09:05:24;21.92;;;10.10;;
66595;SDS011;59017;49.252;18.838;2022-07-23T09:08:09;16.02;;;10.15;;
66595;SDS011;59017;49.252;18.838;2022-07-23T09:10:46;17.50;;;10.10;;
66595;SDS011;59017;49.252;18.838;2022-07-23T09:15:57;17.65;;;9.80;;
66595;SDS011;59017;49.252;18.838;2022-07-23T09:18:28;18.05;;;10.40;;
66595;SDS011;59017;49.252;18.838;2022-07-23T09:21:05;15.48;;;9.68;;
66595;SDS011;59017;49.252;18.838;2022-07-23T09:24:17;14.23;;;9.05;;
66595;SDS011;59017;49.252;18.838;2022-07-23T09:26:25;15.32;;;9.15;;
66595;SDS011;59017;49.252;18.838;2022-07-23T09:29:07;17.92;;;10.15;;
66595;SDS011;59017;49.252;18.838;2022-07-23T09:31:34;16.23;;;9.70;;
66595;SDS011;59017;49.252;18.838;2022-07-23T09:34:10;15.05;;;9.85;;
66595;SDS011;59017;49.252;18.838;2022-07-23T09:36:38;15.00;;;8.70;;
66595;SDS011;59017;49.252;18.838;2022-07-23T09:39:04;15.85;;;9.52;;
66595;SDS011;59017;49.252;18.838;2022-07-23T09:41:33;16.05;;;9.73;;
66595;SDS011;59017;49.252;18.838;2022-07-23T09:44:19;15.45;;;9.27;;
66595;SDS011;59017;49.252;18.838;2022-07-23T09:46:49;15.80;;;9.15;;
66595;SDS011;59017;49.252;18.838;2022-07-23T09:49:17;16.15;;;8.88;;
66595;SDS011;59017;49.252;18.838;2022-07-23T09:51:57;13.63;;;9.32;;
66595;SDS011;59017;49.252;18.838;2022-07-23T09:54:25;16.15;;;8.63;;
66595;SDS011;59017;49.252;18.838;2022-07-23T09:56:56;15.02;;;9.50;;
66595;SDS011;59017;49.252;18.838;2022-07-23T09:59:23;16.85;;;9.02;;
66595;SDS011;59017;49.252;18.838;2022-07-23T10:01:56;14.35;;;8.80;;
66595;SDS011;59017;49.252;18.838;2022-07-23T10:04:24;14.43;;;8.93;;
66595;SDS011;59017;49.252;18.838;2022-07-23T10:06:55;14.55;;;9.02;;
66595;SDS011;59017;49.252;18.838;2022-07-23T10:09:32;14.27;;;9.02;;
66595;SDS011;59017;49.252;18.838;2022-07-23T10:12:00;15.70;;;8.80;;
66595;SDS011;59017;49.252;18.838;2022-07-23T10:14:33;13.88;;;8.55;;
66595;SDS011;59017;49.252;18.838;2022-07-23T10:17:01;14.00;;;9.07;;
66595;SDS011;59017;49.252;18.838;2022-07-23T10:19:28;13.95;;;8.23;;
66595;SDS011;59017;49.252;18.838;2022-07-23T10:21:56;12.60;;;8.88;;
66595;SDS011;59017;49.252;18.838;2022-07-23T10:30:26;14.07;;;8.77;;
66595;SDS011;59017;49.252;18.838;2022-07-23T10:33:20;18.42;;;9.02;;
66595;SDS011;59017;49.252;18.838;2022-07-23T10:41:33;14.05;;;8.57;;
66595;SDS011;59017;49.252;18.838;2022-07-23T10:44:17;13.60;;;8.43;;
66595;SDS011;59017;49.252;18.838;2022-07-23T10:46:55;12.60;;;8.27;;
66595;SDS011;59017;49.252;18.838;2022-07-23T10:49:40;11.27;;;7.63;;
66595;SDS011;59017;49.252;18.838;2022-07-23T10:52:22;13.05;;;8.45;;
66595;SDS011;59017;49.252;18.838;2022-07-23T10:54:56;10.80;;;7.97;;
66595;SDS011;59017;49.252;18.838;2022-07-23T10:57:50;11.30;;;8.38;;
66595;SDS011;59017;49.252;18.838;2022-07-23T11:00:17;11.85;;;7.72;;
66595;SDS011;59017;49.252;18.838;2022-07-23T11:02:47;14.25;;;8.07;;
66595;SDS011;59017;49.252;18.838;2022-07-23T11:05:24;12.95;;;8.45;;
66595;SDS011;59017;49.252;18.838;2022-07-23T11:08:11;13.05;;;8.35;;
66595;SDS011;59017;49.252;18.838;2022-07-23T11:10:44;12.60;;;8.30;;
66595;SDS011;59017;49.252;18.838;2022-07-23T11:26:43;13.73;;;7.85;;
66595;SDS011;59017;49.252;18.838;2022-07-23T11:31:55;13.52;;;8.43;;
66595;SDS011;59017;49.252;18.838;2022-07-23T11:34:29;12.87;;;8.00;;
66595;SDS011;59017;49.252;18.838;2022-07-23T11:37:06;12.73;;;7.85;;
66595;SDS011;59017;49.252;18.838;2022-07-23T11:39:34;12.25;;;8.00;;
66595;SDS011;59017;49.252;18.838;2022-07-23T11:42:01;11.73;;;7.60;;
66595;SDS011;59017;49.252;18.838;2022-07-23T11:44:31;13.85;;;8.52;;
66595;SDS011;59017;49.252;18.838;2022-07-23T11:46:58;11.00;;;7.28;;
66595;SDS011;59017;49.252;18.838;2022-07-23T11:49:32;10.23;;;7.53;;
66595;SDS011;59017;49.252;18.838;2022-07-23T11:52:16;12.57;;;8.30;;
66595;SDS011;59017;49.252;18.838;2022-07-23T11:57:17;11.57;;;7.65;;
66595;SDS011;59017;49.252;18.838;2022-07-23T11:59:43;11.60;;;7.75;;
66595;SDS011;59017;49.252;18.838;2022-07-23T12:02:12;11.40;;;7.55;;
66595;SDS011;59017;49.252;18.838;2022-07-23T12:12:59;11.48;;;7.72;;
66595;SDS011;59017;49.252;18.838;2022-07-23T12:17:56;9.63;;;6.90;;
66595;SDS011;59017;49.252;18.838;2022-07-23T12:20:24;12.35;;;7.55;;
66595;SDS011;59017;49.252;18.838;2022-07-23T12:22:52;10.55;;;7.32;;
66595;SDS011;59017;49.252;18.838;2022-07-23T12:25:22;11.25;;;7.40;;
66595;SDS011;59017;49.252;18.838;2022-07-23T12:28:02;9.77;;;7.20;;
66595;SDS011;59017;49.252;18.838;2022-07-23T12:30:31;10.23;;;7.40;;
66595;SDS011;59017;49.252;18.838;2022-07-23T12:33:02;9.77;;;6.80;;
66595;SDS011;59017;49.252;18.838;2022-07-23T12:35:33;11.30;;;7.45;;
66595;SDS011;59017;49.252;18.838;2022-07-23T12:38:03;11.38;;;7.15;;
66595;SDS011;59017;49.252;18.838;2022-07-23T12:40:32;10.48;;;7.05;;
66595;SDS011;59017;49.252;18.838;2022-07-23T12:43:07;9.57;;;6.82;;
66595;SDS011;59017;49.252;18.838;2022-07-23T12:45:45;9.48;;;7.22;;
66595;SDS011;59017;49.252;18.838;2022-07-23T12:48:37;10.05;;;7.45;;
66595;SDS011;59017;49.252;18.838;2022-07-23T12:53:40;10.30;;;6.93;;
66595;SDS011;59017;49.252;18.838;2022-07-23T12:56:43;9.90;;;7.20;;
66595;SDS011;59017;49.252;18.838;2022-07-23T12:59:06;8.48;;;6.70;;
66595;SDS011;59017;49.252;18.838;2022-07-23T13:01:35;9.95;;;7.28;;
66595;SDS011;59017;49.252;18.838;2022-07-23T13:06:36;10.15;;;7.47;;
66595;SDS011;59017;49.252;18.838;2022-07-23T13:09:05;9.27;;;6.95;;
66595;SDS011;59017;49.252;18.838;2022-07-23T13:11:32;8.80;;;6.63;;
66595;SDS011;59017;49.252;18.838;2022-07-23T13:13:58;10.15;;;6.93;;
66595;SDS011;59017;49.252;18.838;2022-07-23T13:16:26;9.73;;;7.00;;
66595;SDS011;59017;49.252;18.838;2022-07-23T13:18:55;8.68;;;6.50;;
66595;SDS011;59017;49.252;18.838;2022-07-23T13:21:23;9.45;;;6.43;;
66595;SDS011;59017;49.252;18.838;2022-07-23T13:23:49;9.90;;;7.10;;
66595;SDS011;59017;49.252;18.838;2022-07-23T13:26:15;10.63;;;6.93;;
66595;SDS011;59017;49.252;18.838;2022-07-23T13:28:40;9.63;;;6.72;;
66595;SDS011;59017;49.252;18.838;2022-07-23T13:31:06;8.95;;;6.57;;
66595;SDS011;59017;49.252;18.838;2022-07-23T13:33:32;8.43;;;6.57;;
66595;SDS011;59017;49.252;18.838;2022-07-23T13:35:58;9.27;;;6.82;;
66595;SDS011;59017;49.252;18.838;2022-07-23T13:38:24;8.98;;;6.32;;
66595;SDS011;59017;49.252;18.838;2022-07-23T13:40:50;9.23;;;6.43;;
66595;SDS011;59017;49.252;18.838;2022-07-23T13:43:17;8.07;;;5.85;;
66595;SDS011;59017;49.252;18.838;2022-07-23T13:45:44;9.45;;;6.50;;
66595;SDS011;59017;49.252;18.838;2022-07-23T13:48:11;9.00;;;7.10;;
66595;SDS011;59017;49.252;18.838;2022-07-23T13:50:38;8.90;;;6.63;;
66595;SDS011;59017;49.252;18.838;2022-07-23T13:53:06;8.38;;;6.38;;
66595;SDS011;59017;49.252;18.838;2022-07-23T13:55:37;8.77;;;6.82;;
66595;SDS011;59017;49.252;18.838;2022-07-23T13:58:04;8.77;;;6.55;;
66595;SDS011;59017;49.252;18.838;2022-07-23T14:00:31;9.52;;;6.45;;
66595;SDS011;59017;49.252;18.838;2022-07-23T14:02:57;9.43;;;6.38;;
66595;SDS011;59017;49.252;18.838;2022-07-23T14:05:24;8.63;;;6.57;;
66595;SDS011;59017;49.252;18.838;2022-07-23T14:07:50;9.25;;;6.45;;
66595;SDS011;59017;49.252;18.838;2022-07-23T14:10:17;7.82;;;6.07;;
66595;SDS011;59017;49.252;18.838;2022-07-23T14:12:44;10.30;;;6.72;;
66595;SDS011;59017;49.252;18.838;2022-07-23T14:15:11;10.10;;;6.35;;
66595;SDS011;59017;49.252;18.838;2022-07-23T14:17:37;8.15;;;5.88;;
66595;SDS011;59017;49.252;18.838;2022-07-23T14:20:05;8.55;;;6.47;;
66595;SDS011;59017;49.252;18.838;2022-07-23T14:22:32;8.43;;;6.15;;
66595;SDS011;59017;49.252;18.838;2022-07-23T14:24:57;7.60;;;5.97;;
66595;SDS011;59017;49.252;18.838;2022-07-23T14:27:23;8.15;;;6.00;;
66595;SDS011;59017;49.252;18.838;2022-07-23T14:29:50;9.90;;;6.22;;
66595;SDS011;59017;49.252;18.838;2022-07-23T14:32:15;8.52;;;5.80;;
66595;SDS011;59017;49.252;18.838;2022-07-23T14:34:41;8.55;;;6.35;;
66595;SDS011;59017;49.252;18.838;2022-07-23T14:37:07;7.90;;;6.13;;
66595;SDS011;59017;49.252;18.838;2022-07-23T14:39:34;9.43;;;6.20;;
66595;SDS011;59017;49.252;18.838;2022-07-23T14:41:59;8.70;;;6.30;;
66595;SDS011;59017;49.252;18.838;2022-07-23T14:44:26;7.95;;;6.40;;
66595;SDS011;59017;49.252;18.838;2022-07-23T14:46:52;7.75;;;6.13;;
66595;SDS011;59017;49.252;18.838;2022-07-23T14:49:18;7.32;;;5.78;;
66595;SDS011;59017;49.252;18.838;2022-07-23T14:51:43;7.43;;;5.68;;
66595;SDS011;59017;49.252;18.838;2022-07-23T14:54:09;6.82;;;5.38;;
66595;SDS011;59017;49.252;18.838;2022-07-23T14:56:35;8.10;;;6.32;;
66595;SDS011;59017;49.252;18.838;2022-07-23T14:59:02;8.15;;;5.97;;
66595;SDS011;59017;49.252;18.838;2022-07-23T15:01:28;7.25;;;5.43;;
66595;SDS011;59017;49.252;18.838;2022-07-23T15:03:54;9.00;;;6.32;;
66595;SDS011;59017;49.252;18.838;2022-07-23T15:06:20;7.85;;;5.88;;
66595;SDS011;59017;49.252;18.838;2022-07-23T15:08:45;6.15;;;5.18;;
66595;SDS011;59017;49.252;18.838;2022-07-23T15:11:11;7.00;;;5.85;;